sensor_id;sensor_type;location;lat;lon;timestamp;temperature;humidity
7447;DHT22;3765;47.962;7.952;2022-08-18T00:01:24;18.10;78.40
7447;DHT22;3765;47.962;7.952;2022-08-18T00:03:59;18.00;78.40
7447;DHT22;3765;47.962;7.952;2022-08-18T00:06:48;18.00;78.60
7447;DHT22;3765;47.962;7.952;2022-08-18T00:09:19;17.90;78.60
7447;DHT22;3765;47.962;7.952;2022-08-18T00:11:47;17.90;78.80
7447;DHT22;3765;47.962;7.952;2022-08-18T00:14:21;17.90;78.90
7447;DHT22;3765;47.962;7.952;2022-08-18T00:16:52;17.90;79.00
7447;DHT22;3765;47.962;7.952;2022-08-18T00:19:26;17.80;79.10
7447;DHT22;3765;47.962;7.952;2022-08-18T00:22:16;17.90;79.30
7447;DHT22;3765;47.962;7.952;2022-08-18T00:24:51;17.90;79.30
7447;DHT22;3765;47.962;7.952;2022-08-18T00:27:23;17.80;79.30
7447;DHT22;3765;47.962;7.952;2022-08-18T00:29:59;17.80;79.40
7447;DHT22;3765;47.962;7.952;2022-08-18T00:32:32;17.80;79.60
7447;DHT22;3765;47.962;7.952;2022-08-18T00:35:20;17.70;79.70
7447;DHT22;3765;47.962;7.952;2022-08-18T00:37:57;17.70;79.80
7447;DHT22;3765;47.962;7.952;2022-08-18T00:40:33;17.60;79.90
7447;DHT22;3765;47.962;7.952;2022-08-18T00:43:07;17.60;80.10
7447;DHT22;3765;47.962;7.952;2022-08-18T00:45:42;17.60;80.20
7447;DHT22;3765;47.962;7.952;2022-08-18T00:48:13;17.50;80.40
7447;DHT22;3765;47.962;7.952;2022-08-18T00:50:54;17.50;80.40
7447;DHT22;3765;47.962;7.952;2022-08-18T00:53:28;17.50;80.60
7447;DHT22;3765;47.962;7.952;2022-08-18T00:56:02;17.50;80.60
7447;DHT22;3765;47.962;7.952;2022-08-18T00:58:36;17.50;80.60
7447;DHT22;3765;47.962;7.952;2022-08-18T01:01:08;17.50;80.60
7447;DHT22;3765;47.962;7.952;2022-08-18T01:03:39;17.60;80.70
7447;DHT22;3765;47.962;7.952;2022-08-18T01:06:29;17.60;80.70
7447;DHT22;3765;47.962;7.952;2022-08-18T01:09:00;17.50;80.70
7447;DHT22;3765;47.962;7.952;2022-08-18T01:11:29;17.60;80.90
7447;DHT22;3765;47.962;7.952;2022-08-18T01:14:02;17.70;80.80
7447;DHT22;3765;47.962;7.952;2022-08-18T01:16:32;17.70;80.60
7447;DHT22;3765;47.962;7.952;2022-08-18T01:19:25;17.70;80.60
7447;DHT22;3765;47.962;7.952;2022-08-18T01:22:19;17.70;80.40
7447;DHT22;3765;47.962;7.952;2022-08-18T01:24:57;17.70;80.40
7447;DHT22;3765;47.962;7.952;2022-08-18T01:27:45;17.80;80.50
7447;DHT22;3765;47.962;7.952;2022-08-18T01:30:15;17.80;80.40
7447;DHT22;3765;47.962;7.952;2022-08-18T01:32:53;17.80;80.50
7447;DHT22;3765;47.962;7.952;2022-08-18T01:35:24;17.70;80.70
7447;DHT22;3765;47.962;7.952;2022-08-18T01:38:08;17.80;80.70
7447;DHT22;3765;47.962;7.952;2022-08-18T01:40:49;17.70;80.70
7447;DHT22;3765;47.962;7.952;2022-08-18T01:43:38;17.70;80.70
7447;DHT22;3765;47.962;7.952;2022-08-18T01:46:08;17.70;80.60
7447;DHT22;3765;47.962;7.952;2022-08-18T01:48:40;17.70;80.50
7447;DHT22;3765;47.962;7.952;2022-08-18T01:51:09;17.70;80.60
7447;DHT22;3765;47.962;7.952;2022-08-18T01:53:41;17.80;80.60
7447;DHT22;3765;47.962;7.952;2022-08-18T01:56:14;17.80;80.60
7447;DHT22;3765;47.962;7.952;2022-08-18T01:58:43;17.80;80.70
7447;DHT22;3765;47.962;7.952;2022-08-18T02:01:14;17.80;80.80
7447;DHT22;3765;47.962;7.952;2022-08-18T02:03:50;17.80;80.70
7447;DHT22;3765;47.962;7.952;2022-08-18T02:06:42;17.80;80.80
7447;DHT22;3765;47.962;7.952;2022-08-18T02:09:15;17.80;80.70
7447;DHT22;3765;47.962;7.952;2022-08-18T02:11:54;17.80;80.80
7447;DHT22;3765;47.962;7.952;2022-08-18T02:14:24;17.80;81.00
7447;DHT22;3765;47.962;7.952;2022-08-18T02:17:05;17.80;81.10
7447;DHT22;3765;47.962;7.952;2022-08-18T02:19:37;17.80;81.20
7447;DHT22;3765;47.962;7.952;2022-08-18T02:22:17;17.70;81.20
7447;DHT22;3765;47.962;7.952;2022-08-18T02:24:47;17.70;81.30
7447;DHT22;3765;47.962;7.952;2022-08-18T02:27:18;17.60;81.40
7447;DHT22;3765;47.962;7.952;2022-08-18T02:29:47;17.60;81.50
7447;DHT22;3765;47.962;7.952;2022-08-18T02:32:18;17.60;81.60
7447;DHT22;3765;47.962;7.952;2022-08-18T02:34:54;17.70;81.60
7447;DHT22;3765;47.962;7.952;2022-08-18T02:37:24;17.70;81.70
7447;DHT22;3765;47.962;7.952;2022-08-18T02:39:53;17.70;81.60
7447;DHT22;3765;47.962;7.952;2022-08-18T02:42:28;17.70;81.60
7447;DHT22;3765;47.962;7.952;2022-08-18T02:44:58;17.60;81.40
7447;DHT22;3765;47.962;7.952;2022-08-18T02:47:27;17.50;81.60
7447;DHT22;3765;47.962;7.952;2022-08-18T02:50:00;17.60;81.70
7447;DHT22;3765;47.962;7.952;2022-08-18T02:52:29;17.70;81.70
7447;DHT22;3765;47.962;7.952;2022-08-18T02:55:11;17.80;81.80
7447;DHT22;3765;47.962;7.952;2022-08-18T02:57:46;17.80;81.70
7447;DHT22;3765;47.962;7.952;2022-08-18T03:00:16;17.70;81.80
7447;DHT22;3765;47.962;7.952;2022-08-18T03:02:46;17.80;81.80
7447;DHT22;3765;47.962;7.952;2022-08-18T03:05:15;17.70;81.70
7447;DHT22;3765;47.962;7.952;2022-08-18T03:07:44;17.80;81.80
7447;DHT22;3765;47.962;7.952;2022-08-18T03:10:13;17.80;81.80
7447;DHT22;3765;47.962;7.952;2022-08-18T03:13:03;17.80;81.90
7447;DHT22;3765;47.962;7.952;2022-08-18T03:15:35;17.80;81.90
7447;DHT22;3765;47.962;7.952;2022-08-18T03:18:05;17.70;81.90
7447;DHT22;3765;47.962;7.952;2022-08-18T03:20:42;17.60;81.90
7447;DHT22;3765;47.962;7.952;2022-08-18T03:23:12;17.70;82.00
7447;DHT22;3765;47.962;7.952;2022-08-18T03:25:56;17.60;81.90
7447;DHT22;3765;47.962;7.952;2022-08-18T03:28:25;17.60;81.90
7447;DHT22;3765;47.962;7.952;2022-08-18T03:30:56;17.60;81.90
7447;DHT22;3765;47.962;7.952;2022-08-18T03:33:27;17.60;82.00
7447;DHT22;3765;47.962;7.952;2022-08-18T03:36:03;17.60;81.90
7447;DHT22;3765;47.962;7.952;2022-08-18T03:38:31;17.70;82.00
7447;DHT22;3765;47.962;7.952;2022-08-18T03:41:00;17.70;82.00
7447;DHT22;3765;47.962;7.952;2022-08-18T03:43:29;17.70;82.10
7447;DHT22;3765;47.962;7.952;2022-08-18T03:46:19;17.70;82.20
7447;DHT22;3765;47.962;7.952;2022-08-18T03:48:48;17.60;82.20
7447;DHT22;3765;47.962;7.952;2022-08-18T03:51:21;17.60;82.40
7447;DHT22;3765;47.962;7.952;2022-08-18T03:53:56;17.60;82.30
7447;DHT22;3765;47.962;7.952;2022-08-18T03:56:31;17.60;82.30
7447;DHT22;3765;47.962;7.952;2022-08-18T03:59:04;17.50;82.40
7447;DHT22;3765;47.962;7.952;2022-08-18T04:01:37;17.50;82.50
7447;DHT22;3765;47.962;7.952;2022-08-18T04:04:08;17.50;82.50
7447;DHT22;3765;47.962;7.952;2022-08-18T04:06:41;17.60;82.60
7447;DHT22;3765;47.962;7.952;2022-08-18T04:09:12;17.60;82.60
7447;DHT22;3765;47.962;7.952;2022-08-18T04:11:43;17.50;82.60
7447;DHT22;3765;47.962;7.952;2022-08-18T04:14:15;17.60;82.70
7447;DHT22;3765;47.962;7.952;2022-08-18T04:16:46;17.70;82.70
7447;DHT22;3765;47.962;7.952;2022-08-18T04:19:16;17.60;82.60
7447;DHT22;3765;47.962;7.952;2022-08-18T04:21:56;17.60;82.50
7447;DHT22;3765;47.962;7.952;2022-08-18T04:24:27;17.60;82.60
7447;DHT22;3765;47.962;7.952;2022-08-18T04:27:01;17.50;82.60
7447;DHT22;3765;47.962;7.952;2022-08-18T04:29:32;17.60;82.70
7447;DHT22;3765;47.962;7.952;2022-08-18T04:32:02;17.60;82.70
7447;DHT22;3765;47.962;7.952;2022-08-18T04:34:34;17.80;82.60
7447;DHT22;3765;47.962;7.952;2022-08-18T04:37:03;17.80;82.50
7447;DHT22;3765;47.962;7.952;2022-08-18T04:39:36;17.60;82.30
7447;DHT22;3765;47.962;7.952;2022-08-18T04:42:06;17.50;82.40
7447;DHT22;3765;47.962;7.952;2022-08-18T04:44:37;17.60;82.50
7447;DHT22;3765;47.962;7.952;2022-08-18T04:47:11;17.70;82.60
7447;DHT22;3765;47.962;7.952;2022-08-18T04:49:40;17.70;82.50
7447;DHT22;3765;47.962;7.952;2022-08-18T04:52:10;17.70;82.50
7447;DHT22;3765;47.962;7.952;2022-08-18T04:55:09;17.70;82.50
7447;DHT22;3765;47.962;7.952;2022-08-18T04:57:38;17.80;82.50
7447;DHT22;3765;47.962;7.952;2022-08-18T05:00:11;17.80;82.50
7447;DHT22;3765;47.962;7.952;2022-08-18T05:02:40;17.80;82.50
7447;DHT22;3765;47.962;7.952;2022-08-18T05:05:10;17.80;82.40
7447;DHT22;3765;47.962;7.952;2022-08-18T05:07:45;17.80;82.40
7447;DHT22;3765;47.962;7.952;2022-08-18T05:10:14;17.80;82.40
7447;DHT22;3765;47.962;7.952;2022-08-18T05:12:47;17.80;82.30
7447;DHT22;3765;47.962;7.952;2022-08-18T05:15:30;17.80;82.40
7447;DHT22;3765;47.962;7.952;2022-08-18T05:18:21;17.80;82.40
7447;DHT22;3765;47.962;7.952;2022-08-18T05:20:54;17.80;82.30
7447;DHT22;3765;47.962;7.952;2022-08-18T05:23:25;17.90;82.20
7447;DHT22;3765;47.962;7.952;2022-08-18T05:25:57;17.90;82.20
7447;DHT22;3765;47.962;7.952;2022-08-18T05:28:26;17.90;82.40
7447;DHT22;3765;47.962;7.952;2022-08-18T05:30:56;17.90;82.50
7447;DHT22;3765;47.962;7.952;2022-08-18T05:33:26;18.00;82.60
7447;DHT22;3765;47.962;7.952;2022-08-18T05:36:03;18.00;82.60
7447;DHT22;3765;47.962;7.952;2022-08-18T05:38:47;18.10;82.60
7447;DHT22;3765;47.962;7.952;2022-08-18T05:41:24;18.10;82.50
7447;DHT22;3765;47.962;7.952;2022-08-18T05:43:58;18.00;82.50
7447;DHT22;3765;47.962;7.952;2022-08-18T05:46:40;18.00;82.60
7447;DHT22;3765;47.962;7.952;2022-08-18T05:49:14;17.90;82.50
7447;DHT22;3765;47.962;7.952;2022-08-18T05:51:47;17.90;82.60
7447;DHT22;3765;47.962;7.952;2022-08-18T05:54:21;17.90;82.60
7447;DHT22;3765;47.962;7.952;2022-08-18T05:57:12;18.00;82.70
7447;DHT22;3765;47.962;7.952;2022-08-18T05:59:44;18.00;82.60
7447;DHT22;3765;47.962;7.952;2022-08-18T06:02:31;17.90;82.60
7447;DHT22;3765;47.962;7.952;2022-08-18T06:05:05;17.90;82.70
7447;DHT22;3765;47.962;7.952;2022-08-18T06:07:36;18.10;82.70
7447;DHT22;3765;47.962;7.952;2022-08-18T06:10:12;18.20;82.50
7447;DHT22;3765;47.962;7.952;2022-08-18T06:12:43;18.20;82.50
7447;DHT22;3765;47.962;7.952;2022-08-18T06:15:16;18.30;82.50
7447;DHT22;3765;47.962;7.952;2022-08-18T06:21:14;18.20;82.40
7447;DHT22;3765;47.962;7.952;2022-08-18T06:23:50;18.20;82.40
7447;DHT22;3765;47.962;7.952;2022-08-18T06:26:30;18.20;82.40
7447;DHT22;3765;47.962;7.952;2022-08-18T06:29:11;18.10;82.40
7447;DHT22;3765;47.962;7.952;2022-08-18T06:31:56;18.20;82.40
7447;DHT22;3765;47.962;7.952;2022-08-18T06:34:44;18.20;82.40
7447;DHT22;3765;47.962;7.952;2022-08-18T06:37:27;18.20;82.40
7447;DHT22;3765;47.962;7.952;2022-08-18T06:40:00;18.20;82.30
7447;DHT22;3765;47.962;7.952;2022-08-18T06:42:30;18.30;82.40
7447;DHT22;3765;47.962;7.952;2022-08-18T06:45:10;18.20;82.40
7447;DHT22;3765;47.962;7.952;2022-08-18T06:47:45;18.20;82.40
7447;DHT22;3765;47.962;7.952;2022-08-18T06:50:25;18.30;82.40
7447;DHT22;3765;47.962;7.952;2022-08-18T06:52:59;18.30;82.50
7447;DHT22;3765;47.962;7.952;2022-08-18T06:55:33;18.30;82.40
7447;DHT22;3765;47.962;7.952;2022-08-18T06:58:07;18.40;82.50
7447;DHT22;3765;47.962;7.952;2022-08-18T07:00:56;18.50;82.40
7447;DHT22;3765;47.962;7.952;2022-08-18T07:03:43;18.50;82.20
7447;DHT22;3765;47.962;7.952;2022-08-18T07:06:30;18.40;82.10
7447;DHT22;3765;47.962;7.952;2022-08-18T07:09:19;18.50;82.20
7447;DHT22;3765;47.962;7.952;2022-08-18T07:12:03;18.50;82.10
7447;DHT22;3765;47.962;7.952;2022-08-18T07:14:41;18.50;82.10
7447;DHT22;3765;47.962;7.952;2022-08-18T07:17:12;18.60;81.90
7447;DHT22;3765;47.962;7.952;2022-08-18T07:19:42;18.60;82.00
7447;DHT22;3765;47.962;7.952;2022-08-18T07:22:16;18.70;81.90
7447;DHT22;3765;47.962;7.952;2022-08-18T07:25:18;18.80;81.70
7447;DHT22;3765;47.962;7.952;2022-08-18T07:27:55;18.80;81.50
7447;DHT22;3765;47.962;7.952;2022-08-18T07:30:31;18.80;81.10
7447;DHT22;3765;47.962;7.952;2022-08-18T07:33:08;18.90;81.30
7447;DHT22;3765;47.962;7.952;2022-08-18T07:35:43;19.10;80.90
7447;DHT22;3765;47.962;7.952;2022-08-18T07:38:22;19.30;80.90
7447;DHT22;3765;47.962;7.952;2022-08-18T07:41:14;19.50;80.60
7447;DHT22;3765;47.962;7.952;2022-08-18T07:43:55;19.70;80.30
7447;DHT22;3765;47.962;7.952;2022-08-18T07:46:40;19.60;79.90
7447;DHT22;3765;47.962;7.952;2022-08-18T07:49:11;19.80;80.00
7447;DHT22;3765;47.962;7.952;2022-08-18T07:51:56;19.80;79.80
7447;DHT22;3765;47.962;7.952;2022-08-18T07:54:46;19.80;79.50
7447;DHT22;3765;47.962;7.952;2022-08-18T07:57:26;19.90;79.40
7447;DHT22;3765;47.962;7.952;2022-08-18T08:00:19;20.10;79.20
7447;DHT22;3765;47.962;7.952;2022-08-18T08:03:22;20.20;78.70
7447;DHT22;3765;47.962;7.952;2022-08-18T08:06:00;20.30;78.70
7447;DHT22;3765;47.962;7.952;2022-08-18T08:08:36;20.40;78.40
7447;DHT22;3765;47.962;7.952;2022-08-18T08:11:15;20.60;78.20
7447;DHT22;3765;47.962;7.952;2022-08-18T08:14:00;20.70;77.70
7447;DHT22;3765;47.962;7.952;2022-08-18T08:16:39;20.70;77.60
7447;DHT22;3765;47.962;7.952;2022-08-18T08:19:24;20.80;77.30
7447;DHT22;3765;47.962;7.952;2022-08-18T08:22:19;20.80;77.10
7447;DHT22;3765;47.962;7.952;2022-08-18T08:24:55;20.80;77.10
7447;DHT22;3765;47.962;7.952;2022-08-18T08:27:37;20.80;76.80
7447;DHT22;3765;47.962;7.952;2022-08-18T08:30:12;20.60;76.40
7447;DHT22;3765;47.962;7.952;2022-08-18T08:32:47;20.60;76.70
7447;DHT22;3765;47.962;7.952;2022-08-18T08:35:22;20.70;76.70
7447;DHT22;3765;47.962;7.952;2022-08-18T08:38:13;20.80;76.60
7447;DHT22;3765;47.962;7.952;2022-08-18T08:41:08;20.70;76.70
7447;DHT22;3765;47.962;7.952;2022-08-18T08:43:42;20.70;76.60
7447;DHT22;3765;47.962;7.952;2022-08-18T08:46:16;20.80;76.70
7447;DHT22;3765;47.962;7.952;2022-08-18T08:48:49;21.10;76.50
7447;DHT22;3765;47.962;7.952;2022-08-18T08:51:28;21.30;75.80
7447;DHT22;3765;47.962;7.952;2022-08-18T08:54:05;21.30;75.70
7447;DHT22;3765;47.962;7.952;2022-08-18T08:56:44;21.30;75.70
7447;DHT22;3765;47.962;7.952;2022-08-18T08:59:23;21.60;75.40
7447;DHT22;3765;47.962;7.952;2022-08-18T09:02:00;21.40;74.80
7447;DHT22;3765;47.962;7.952;2022-08-18T09:05:05;21.30;75.00
7447;DHT22;3765;47.962;7.952;2022-08-18T09:07:56;21.50;74.80
7447;DHT22;3765;47.962;7.952;2022-08-18T09:10:51;21.60;74.50
7447;DHT22;3765;47.962;7.952;2022-08-18T09:16:39;21.80;73.90
7447;DHT22;3765;47.962;7.952;2022-08-18T09:19:33;21.80;73.90
7447;DHT22;3765;47.962;7.952;2022-08-18T09:22:29;21.90;73.80
7447;DHT22;3765;47.962;7.952;2022-08-18T09:24:59;22.20;73.60
7447;DHT22;3765;47.962;7.952;2022-08-18T09:27:35;22.40;72.90
7447;DHT22;3765;47.962;7.952;2022-08-18T09:30:47;22.60;72.40
7447;DHT22;3765;47.962;7.952;2022-08-18T09:33:30;22.60;71.70
7447;DHT22;3765;47.962;7.952;2022-08-18T09:36:12;22.70;71.30
7447;DHT22;3765;47.962;7.952;2022-08-18T09:39:18;22.80;71.10
7447;DHT22;3765;47.962;7.952;2022-08-18T09:42:09;22.80;70.40
7447;DHT22;3765;47.962;7.952;2022-08-18T09:45:06;22.50;70.40
7447;DHT22;3765;47.962;7.952;2022-08-18T09:47:59;22.50;70.70
7447;DHT22;3765;47.962;7.952;2022-08-18T09:50:50;22.80;70.40
7447;DHT22;3765;47.962;7.952;2022-08-18T09:54:05;22.50;70.40
7447;DHT22;3765;47.962;7.952;2022-08-18T10:00:18;22.70;70.30
7447;DHT22;3765;47.962;7.952;2022-08-18T10:03:09;22.90;69.70
7447;DHT22;3765;47.962;7.952;2022-08-18T10:06:12;22.90;69.60
7447;DHT22;3765;47.962;7.952;2022-08-18T10:08:58;22.60;69.70
7447;DHT22;3765;47.962;7.952;2022-08-18T10:18:19;23.00;69.20
7447;DHT22;3765;47.962;7.952;2022-08-18T10:21:01;23.00;69.20
7447;DHT22;3765;47.962;7.952;2022-08-18T10:23:52;22.90;69.10
7447;DHT22;3765;47.962;7.952;2022-08-18T10:27:32;22.90;69.20
7447;DHT22;3765;47.962;7.952;2022-08-18T10:30:04;22.90;69.40
7447;DHT22;3765;47.962;7.952;2022-08-18T10:32:42;23.00;69.30
7447;DHT22;3765;47.962;7.952;2022-08-18T10:38:46;22.80;69.40
7447;DHT22;3765;47.962;7.952;2022-08-18T10:41:23;22.60;69.40
7447;DHT22;3765;47.962;7.952;2022-08-18T10:43:57;22.50;69.80
7447;DHT22;3765;47.962;7.952;2022-08-18T10:46:32;22.70;69.60
7447;DHT22;3765;47.962;7.952;2022-08-18T10:49:19;22.80;69.30
7447;DHT22;3765;47.962;7.952;2022-08-18T10:55:20;23.10;69.60
7447;DHT22;3765;47.962;7.952;2022-08-18T11:01:35;23.00;68.30
7447;DHT22;3765;47.962;7.952;2022-08-18T11:04:09;23.40;68.80
7447;DHT22;3765;47.962;7.952;2022-08-18T11:07:07;23.60;68.50
7447;DHT22;3765;47.962;7.952;2022-08-18T11:09:37;24.00;68.30
7447;DHT22;3765;47.962;7.952;2022-08-18T11:12:44;24.10;67.20
7447;DHT22;3765;47.962;7.952;2022-08-18T11:15:21;24.00;67.10
7447;DHT22;3765;47.962;7.952;2022-08-18T11:18:17;24.10;67.40
7447;DHT22;3765;47.962;7.952;2022-08-18T11:24:13;24.40;66.80
7447;DHT22;3765;47.962;7.952;2022-08-18T11:26:45;24.90;66.00
7447;DHT22;3765;47.962;7.952;2022-08-18T11:29:37;25.00;65.40
7447;DHT22;3765;47.962;7.952;2022-08-18T11:32:08;25.10;64.80
7447;DHT22;3765;47.962;7.952;2022-08-18T11:34:41;25.10;64.70
7447;DHT22;3765;47.962;7.952;2022-08-18T11:37:22;24.90;64.40
7447;DHT22;3765;47.962;7.952;2022-08-18T11:39:55;24.90;64.50
7447;DHT22;3765;47.962;7.952;2022-08-18T11:42:31;25.00;64.00
7447;DHT22;3765;47.962;7.952;2022-08-18T11:45:10;25.00;64.00
7447;DHT22;3765;47.962;7.952;2022-08-18T11:48:01;24.80;64.00
7447;DHT22;3765;47.962;7.952;2022-08-18T11:50:31;24.50;64.00
7447;DHT22;3765;47.962;7.952;2022-08-18T11:53:13;24.40;64.60
7447;DHT22;3765;47.962;7.952;2022-08-18T11:56:04;24.30;64.60
7447;DHT22;3765;47.962;7.952;2022-08-18T11:58:41;24.20;64.20
7447;DHT22;3765;47.962;7.952;2022-08-18T12:01:37;23.70;64.80
7447;DHT22;3765;47.962;7.952;2022-08-18T12:04:21;23.70;65.00
7447;DHT22;3765;47.962;7.952;2022-08-18T12:06:59;23.60;65.50
7447;DHT22;3765;47.962;7.952;2022-08-18T12:09:35;23.40;65.50
7447;DHT22;3765;47.962;7.952;2022-08-18T12:12:26;23.20;65.70
7447;DHT22;3765;47.962;7.952;2022-08-18T12:14:58;23.00;66.20
7447;DHT22;3765;47.962;7.952;2022-08-18T12:17:40;23.00;66.40
7447;DHT22;3765;47.962;7.952;2022-08-18T12:20:19;23.00;66.60
7447;DHT22;3765;47.962;7.952;2022-08-18T12:22:47;23.00;66.90
7447;DHT22;3765;47.962;7.952;2022-08-18T12:25:18;23.10;66.70
7447;DHT22;3765;47.962;7.952;2022-08-18T12:27:51;23.10;66.80
7447;DHT22;3765;47.962;7.952;2022-08-18T12:30:20;23.00;66.90
7447;DHT22;3765;47.962;7.952;2022-08-18T12:32:50;23.00;66.90
7447;DHT22;3765;47.962;7.952;2022-08-18T12:35:40;23.20;67.00
7447;DHT22;3765;47.962;7.952;2022-08-18T12:38:28;23.20;66.90
7447;DHT22;3765;47.962;7.952;2022-08-18T12:41:22;23.30;66.70
7447;DHT22;3765;47.962;7.952;2022-08-18T12:44:05;23.30;66.70
7447;DHT22;3765;47.962;7.952;2022-08-18T12:46:40;23.30;66.50
7447;DHT22;3765;47.962;7.952;2022-08-18T12:49:14;23.30;66.50
7447;DHT22;3765;47.962;7.952;2022-08-18T12:51:47;23.40;66.70
7447;DHT22;3765;47.962;7.952;2022-08-18T12:54:23;23.60;66.50
7447;DHT22;3765;47.962;7.952;2022-08-18T12:56:57;23.80;66.40
7447;DHT22;3765;47.962;7.952;2022-08-18T12:59:27;23.90;66.00
7447;DHT22;3765;47.962;7.952;2022-08-18T13:02:03;23.80;65.90
7447;DHT22;3765;47.962;7.952;2022-08-18T13:04:36;24.00;65.90
7447;DHT22;3765;47.962;7.952;2022-08-18T13:07:04;24.10;65.50
7447;DHT22;3765;47.962;7.952;2022-08-18T13:09:35;24.20;65.50
7447;DHT22;3765;47.962;7.952;2022-08-18T13:12:21;24.20;65.30
7447;DHT22;3765;47.962;7.952;2022-08-18T13:14:53;24.20;65.00
7447;DHT22;3765;47.962;7.952;2022-08-18T13:17:21;24.10;65.00
7447;DHT22;3765;47.962;7.952;2022-08-18T13:20:02;24.00;65.30
7447;DHT22;3765;47.962;7.952;2022-08-18T13:22:33;24.10;65.20
7447;DHT22;3765;47.962;7.952;2022-08-18T13:25:03;24.10;65.00
7447;DHT22;3765;47.962;7.952;2022-08-18T13:27:33;24.00;65.20
7447;DHT22;3765;47.962;7.952;2022-08-18T13:30:14;23.80;65.00
7447;DHT22;3765;47.962;7.952;2022-08-18T13:32:58;23.80;65.30
7447;DHT22;3765;47.962;7.952;2022-08-18T13:35:49;23.80;65.60
7447;DHT22;3765;47.962;7.952;2022-08-18T13:38:21;23.80;65.60
7447;DHT22;3765;47.962;7.952;2022-08-18T13:40:56;23.80;65.60
7447;DHT22;3765;47.962;7.952;2022-08-18T13:43:29;23.50;65.80
7447;DHT22;3765;47.962;7.952;2022-08-18T13:46:01;23.50;66.00
7447;DHT22;3765;47.962;7.952;2022-08-18T13:48:29;23.30;66.00
7447;DHT22;3765;47.962;7.952;2022-08-18T13:51:00;23.10;66.50
7447;DHT22;3765;47.962;7.952;2022-08-18T13:53:30;23.00;66.80
7447;DHT22;3765;47.962;7.952;2022-08-18T13:55:59;22.90;67.10
7447;DHT22;3765;47.962;7.952;2022-08-18T13:58:28;23.00;67.30
7447;DHT22;3765;47.962;7.952;2022-08-18T14:00:58;23.10;67.40
7447;DHT22;3765;47.962;7.952;2022-08-18T14:03:46;23.20;67.50
7447;DHT22;3765;47.962;7.952;2022-08-18T14:06:17;23.10;67.40
7447;DHT22;3765;47.962;7.952;2022-08-18T14:08:50;23.00;67.90
7447;DHT22;3765;47.962;7.952;2022-08-18T14:11:21;23.00;68.10
7447;DHT22;3765;47.962;7.952;2022-08-18T14:13:53;23.00;68.10
7447;DHT22;3765;47.962;7.952;2022-08-18T14:16:23;23.00;68.20
7447;DHT22;3765;47.962;7.952;2022-08-18T14:18:53;22.90;68.40
7447;DHT22;3765;47.962;7.952;2022-08-18T14:21:44;22.80;68.60
7447;DHT22;3765;47.962;7.952;2022-08-18T14:24:30;22.70;68.80
7447;DHT22;3765;47.962;7.952;2022-08-18T14:27:28;22.70;69.10
7447;DHT22;3765;47.962;7.952;2022-08-18T14:30:01;22.60;69.00
7447;DHT22;3765;47.962;7.952;2022-08-18T14:32:30;22.30;69.50
7447;DHT22;3765;47.962;7.952;2022-08-18T14:35:04;22.20;69.90
7447;DHT22;3765;47.962;7.952;2022-08-18T14:37:55;22.20;70.40
7447;DHT22;3765;47.962;7.952;2022-08-18T14:40:25;22.40;70.30
7447;DHT22;3765;47.962;7.952;2022-08-18T14:42:54;22.40;69.90
7447;DHT22;3765;47.962;7.952;2022-08-18T14:45:26;22.50;69.90
7447;DHT22;3765;47.962;7.952;2022-08-18T14:48:04;22.30;70.10
7447;DHT22;3765;47.962;7.952;2022-08-18T14:50:39;22.30;70.40
7447;DHT22;3765;47.962;7.952;2022-08-18T14:53:17;22.30;70.40
7447;DHT22;3765;47.962;7.952;2022-08-18T14:55:46;22.30;70.30
7447;DHT22;3765;47.962;7.952;2022-08-18T14:58:18;22.30;70.90
7447;DHT22;3765;47.962;7.952;2022-08-18T15:00:46;22.50;70.80
7447;DHT22;3765;47.962;7.952;2022-08-18T15:03:20;22.50;70.60
7447;DHT22;3765;47.962;7.952;2022-08-18T15:05:57;22.60;70.40
7447;DHT22;3765;47.962;7.952;2022-08-18T15:08:27;22.40;70.50
7447;DHT22;3765;47.962;7.952;2022-08-18T15:10:57;22.40;70.70
7447;DHT22;3765;47.962;7.952;2022-08-18T15:13:27;22.50;70.90
7447;DHT22;3765;47.962;7.952;2022-08-18T15:15:55;22.60;70.70
7447;DHT22;3765;47.962;7.952;2022-08-18T15:18:28;22.80;70.60
7447;DHT22;3765;47.962;7.952;2022-08-18T15:20:58;22.80;70.30
7447;DHT22;3765;47.962;7.952;2022-08-18T15:24:01;22.80;70.20
7447;DHT22;3765;47.962;7.952;2022-08-18T15:26:50;22.90;70.30
7447;DHT22;3765;47.962;7.952;2022-08-18T15:29:24;22.90;70.00
7447;DHT22;3765;47.962;7.952;2022-08-18T15:31:55;22.70;70.10
7447;DHT22;3765;47.962;7.952;2022-08-18T15:34:32;22.50;70.40
7447;DHT22;3765;47.962;7.952;2022-08-18T15:37:17;22.40;70.50
7447;DHT22;3765;47.962;7.952;2022-08-18T15:39:58;22.30;70.70
7447;DHT22;3765;47.962;7.952;2022-08-18T15:42:28;22.30;70.70
7447;DHT22;3765;47.962;7.952;2022-08-18T15:45:00;22.10;70.80
7447;DHT22;3765;47.962;7.952;2022-08-18T15:47:38;22.10;71.30
7447;DHT22;3765;47.962;7.952;2022-08-18T15:50:09;22.00;71.50
7447;DHT22;3765;47.962;7.952;2022-08-18T15:52:53;22.00;71.50
7447;DHT22;3765;47.962;7.952;2022-08-18T15:55:25;21.90;71.60
7447;DHT22;3765;47.962;7.952;2022-08-18T15:57:54;21.80;71.80
7447;DHT22;3765;47.962;7.952;2022-08-18T16:00:25;21.50;72.30
7447;DHT22;3765;47.962;7.952;2022-08-18T16:02:56;21.60;72.60
7447;DHT22;3765;47.962;7.952;2022-08-18T16:05:27;21.70;72.50
7447;DHT22;3765;47.962;7.952;2022-08-18T16:07:56;21.70;72.60
7447;DHT22;3765;47.962;7.952;2022-08-18T16:10:29;21.60;72.70
7447;DHT22;3765;47.962;7.952;2022-08-18T16:12:58;21.50;72.90
7447;DHT22;3765;47.962;7.952;2022-08-18T16:15:33;21.40;73.20
7447;DHT22;3765;47.962;7.952;2022-08-18T16:18:03;21.30;73.20
7447;DHT22;3765;47.962;7.952;2022-08-18T16:20:31;21.30;73.60
7447;DHT22;3765;47.962;7.952;2022-08-18T16:22:59;21.30;73.80
7447;DHT22;3765;47.962;7.952;2022-08-18T16:25:29;21.30;73.90
7447;DHT22;3765;47.962;7.952;2022-08-18T16:27:58;21.30;74.00
7447;DHT22;3765;47.962;7.952;2022-08-18T16:30:27;21.40;74.20
7447;DHT22;3765;47.962;7.952;2022-08-18T16:32:59;21.50;74.10
7447;DHT22;3765;47.962;7.952;2022-08-18T16:35:30;21.50;74.10
7447;DHT22;3765;47.962;7.952;2022-08-18T16:38:02;21.50;74.20
7447;DHT22;3765;47.962;7.952;2022-08-18T16:40:32;21.50;74.20
7447;DHT22;3765;47.962;7.952;2022-08-18T16:43:01;21.50;74.20
7447;DHT22;3765;47.962;7.952;2022-08-18T16:45:29;21.60;74.20
7447;DHT22;3765;47.962;7.952;2022-08-18T16:47:59;21.60;74.30
7447;DHT22;3765;47.962;7.952;2022-08-18T16:50:28;21.60;74.30
7447;DHT22;3765;47.962;7.952;2022-08-18T16:52:56;21.60;74.30
7447;DHT22;3765;47.962;7.952;2022-08-18T16:55:25;21.50;74.50
7447;DHT22;3765;47.962;7.952;2022-08-18T16:57:55;21.50;74.70
7447;DHT22;3765;47.962;7.952;2022-08-18T17:00:42;21.50;74.80
7447;DHT22;3765;47.962;7.952;2022-08-18T17:03:28;21.40;75.00
7447;DHT22;3765;47.962;7.952;2022-08-18T17:06:16;21.40;75.30
7447;DHT22;3765;47.962;7.952;2022-08-18T17:08:45;21.30;75.80
7447;DHT22;3765;47.962;7.952;2022-08-18T17:11:16;21.20;76.10
7447;DHT22;3765;47.962;7.952;2022-08-18T17:13:47;21.20;76.30
7447;DHT22;3765;47.962;7.952;2022-08-18T17:16:16;21.20;76.60
7447;DHT22;3765;47.962;7.952;2022-08-18T17:18:45;21.20;76.80
7447;DHT22;3765;47.962;7.952;2022-08-18T17:21:16;21.10;77.10
7447;DHT22;3765;47.962;7.952;2022-08-18T17:23:45;21.00;77.40
7447;DHT22;3765;47.962;7.952;2022-08-18T17:26:19;20.90;77.40
7447;DHT22;3765;47.962;7.952;2022-08-18T17:28:53;20.80;77.60
7447;DHT22;3765;47.962;7.952;2022-08-18T17:31:25;20.70;77.90
7447;DHT22;3765;47.962;7.952;2022-08-18T17:34:07;20.70;78.10
7447;DHT22;3765;47.962;7.952;2022-08-18T17:36:51;20.70;78.40